Time;durP1;ratioP1;P1;durP2;ratioP2;P2;SDS_P1;SDS_P2;PMS_P1;PMS_P2;Temp;Humidity;BMP_temperature;BMP_pressure;BME280_temperature;BME280_humidity;BME280_pressure;Samples;Min_cycle;Max_cycle;Signal;HPM_P1;HPM_P2
2022/01/29 00:00:43;;;;;;;2.97;0.70;;;;;;;20.38;46.04;102466.38;4994105;28;20022;-75
2022/01/29 00:03:10;;;;;;;3.65;1.00;;;;;;;20.43;45.90;102468.94;4994074;28;20019;-74
2022/01/29 00:05:35;;;;;;;2.70;1.48;;;;;;;20.53;45.48;102473.31;4994057;28;20500;-76
2022/01/29 00:08:02;;;;;;;2.53;1.05;;;;;;;20.33;45.94;102469.34;4993802;28;20113;-75
2022/01/29 00:10:28;;;;;;;4.22;1.45;;;;;;;20.67;45.34;102460.78;4993925;28;20080;-76
2022/01/29 00:12:54;;;;;;;3.42;1.45;;;;;;;20.61;45.11;102459.34;4993865;28;20030;-76
2022/01/29 00:15:20;;;;;;;4.03;1.48;;;;;;;20.70;44.85;102443.41;4992578;28;20037;-75
2022/01/29 00:17:46;;;;;;;6.70;1.30;;;;;;;19.95;46.48;102442.53;4993786;28;20038;-75
2022/01/29 00:20:12;;;;;;;3.70;0.93;;;;;;;20.57;44.96;102430.66;4993712;28;20076;-78
2022/01/29 00:22:37;;;;;;;3.15;1.00;;;;;;;19.81;46.64;102428.88;4992403;28;20030;-77
2022/01/29 00:25:04;;;;;;;3.40;1.00;;;;;;;20.34;45.49;102426.56;4992421;28;20028;-75
2022/01/29 00:27:33;;;;;;;5.03;1.42;;;;;;;20.10;45.91;102422.50;4993531;28;20473;-77
2022/01/29 00:30:03;;;;;;;4.72;1.40;;;;;;;20.35;45.19;102417.09;4992287;28;20472;-75
2022/01/29 00:32:29;;;;;;;4.75;1.20;;;;;;;20.04;46.11;102411.94;4993880;28;20087;-82
2022/01/29 00:34:55;;;;;;;6.45;1.70;;;;;;;20.44;44.99;102407.56;4993488;28;20026;-75
2022/01/29 00:37:20;;;;;;;4.28;1.20;;;;;;;20.70;44.38;102406.50;4993424;28;20023;-80
2022/01/29 00:39:46;;;;;;;3.97;1.10;;;;;;;20.50;44.63;102391.50;4993426;28;20030;-75
2022/01/29 00:42:12;;;;;;;5.40;1.30;;;;;;;20.52;44.56;102377.28;4993456;28;20026;-76
2022/01/29 00:44:37;;;;;;;7.35;1.50;;;;;;;20.38;44.96;102381.13;4993366;28;20080;-75
2022/01/29 00:47:03;;;;;;;6.65;1.40;;;;;;;20.04;45.89;102398.88;4993091;28;20559;-80
2022/01/29 00:49:29;;;;;;;7.72;1.38;;;;;;;20.49;44.50;102399.03;4991947;28;20535;-79
2022/01/29 00:51:54;;;;;;;6.82;1.88;;;;;;;20.60;44.24;102398.59;4993297;28;20027;-75
2022/01/29 00:54:20;;;;;;;6.70;1.38;;;;;;;20.73;43.87;102406.63;4993271;28;20026;-76
2022/01/29 00:56:45;;;;;;;6.07;1.35;;;;;;;20.76;43.73;102396.81;4993141;28;20468;-75
2022/01/29 00:59:11;;;;;;;5.80;1.90;;;;;;;20.87;43.25;102395.22;4993240;28;20034;-75
2022/01/29 01:01:36;;;;;;;5.72;1.10;;;;;;;20.17;44.61;102388.66;4992387;28;20405;-75
2022/01/29 01:04:02;;;;;;;5.38;1.40;;;;;;;20.58;43.61;102387.03;4991911;28;20160;-75
2022/01/29 01:06:31;;;;;;;4.63;2.00;;;;;;;20.18;44.22;102381.97;4993119;28;20369;-75
2022/01/29 01:08:56;;;;;;;3.35;1.48;;;;;;;20.24;44.29;102397.25;4993134;28;20106;-75
2022/01/29 01:11:22;;;;;;;4.97;1.00;;;;;;;20.08;44.77;102390.69;4995625;28;20026;-75
2022/01/29 01:13:47;;;;;;;3.60;1.20;;;;;;;20.46;43.65;102382.22;4999860;28;20018;-75
2022/01/29 01:16:13;;;;;;;3.85;2.00;;;;;;;20.41;43.42;102390.75;4999486;28;20023;-75
2022/01/29 01:18:39;;;;;;;5.43;1.25;;;;;;;20.37;43.44;102367.59;4992563;28;20571;-81
2022/01/29 01:21:04;;;;;;;5.47;1.50;;;;;;;20.64;42.65;102377.34;4993274;28;20027;-76
2022/01/29 01:23:30;;;;;;;3.33;1.17;;;;;;;20.87;41.99;102384.13;4993254;28;20026;-75
2022/01/29 01:25:56;;;;;;;9.50;2.40;;;;;;;20.61;42.38;102380.78;4993131;28;20061;-75
2022/01/29 01:28:22;;;;;;;5.35;1.45;;;;;;;20.66;42.21;102381.38;4992784;28;20377;-80
2022/01/29 01:30:48;;;;;;;6.25;1.83;;;;;;;20.59;42.27;102383.91;4992943;28;20034;-76
2022/01/29 01:33:13;;;;;;;5.30;1.30;;;;;;;20.83;41.66;102391.50;4992929;28;20031;-76
2022/01/29 01:35:45;;;;;;;2.00;1.05;;;;;;;20.87;41.53;102381.34;4992881;28;20088;-79
2022/01/29 01:38:16;;;;;;;6.70;1.33;;;;;;;20.73;41.87;102378.88;4991716;28;20033;-75
2022/01/29 01:40:47;;;;;;;4.88;1.13;;;;;;;20.81;41.48;102381.91;4992853;28;20030;-78
2022/01/29 01:43:13;;;;;;;5.32;1.33;;;;;;;20.75;41.89;102382.09;4992778;28;20031;-80
2022/01/29 01:45:39;;;;;;;3.85;1.65;;;;;;;21.01;41.31;102372.69;4992724;28;20034;-81
2022/01/29 01:48:06;;;;;;;6.40;1.50;;;;;;;21.09;40.97;102370.97;4991182;28;20062;-78
2022/01/29 01:50:36;;;;;;;5.18;1.52;;;;;;;20.92;41.50;102374.72;4992767;28;20041;-76
2022/01/29 01:53:03;;;;;;;2.85;0.93;;;;;;;20.82;41.89;102359.31;4992418;28;20026;-78
2022/01/29 01:55:29;;;;;;;4.32;1.30;;;;;;;20.57;42.06;102363.19;4992722;28;20038;-80
2022/01/29 01:57:55;;;;;;;3.60;1.23;;;;;;;20.65;42.38;102353.97;4992713;28;20402;-75
2022/01/29 02:00:21;;;;;;;5.07;1.20;;;;;;;20.53;42.70;102353.91;4992662;28;20101;-78
2022/01/29 02:02:47;;;;;;;7.90;2.00;;;;;;;20.19;43.48;102353.88;4992652;28;20030;-75
2022/01/29 02:05:13;;;;;;;4.28;1.10;;;;;;;20.33;43.38;102348.03;4992644;28;20023;-81
2022/01/29 02:07:39;;;;;;;4.57;1.27;;;;;;;20.13;43.72;102352.44;4992433;28;20046;-80
2022/01/29 02:10:10;;;;;;;7.63;1.50;;;;;;;20.36;43.37;102347.34;4992554;28;20030;-76
2022/01/29 02:12:50;;;;;;;4.15;1.38;;;;;;;20.11;43.71;102345.63;4993237;28;20030;-81
2022/01/29 02:15:19;;;;;;;5.22;1.45;;;;;;;20.17;43.85;102327.59;4996164;28;20027;-76
2022/01/29 02:17:46;;;;;;;5.88;1.48;;;;;;;20.22;43.62;102319.06;4994744;28;20026;-81
2022/01/29 02:20:19;;;;;;;7.50;1.95;;;;;;;19.88;44.42;102321.00;4994719;28;20027;-81
2022/01/29 02:22:45;;;;;;;7.18;1.50;;;;;;;20.32;43.43;102310.31;4994915;28;20108;-79
2022/01/29 02:25:39;;;;;;;8.43;1.50;;;;;;;19.72;44.68;102308.84;4995948;28;20028;-80
2022/01/29 02:28:13;;;;;;;4.00;1.48;;;;;;;20.19;43.57;102303.91;4995751;28;20023;-81
2022/01/29 02:30:42;;;;;;;5.60;1.25;;;;;;;20.06;44.04;102310.56;4995889;28;20042;-75
2022/01/29 02:33:11;;;;;;;5.88;1.75;;;;;;;20.17;43.82;102313.72;4995742;28;20073;-75
2022/01/29 02:35:41;;;;;;;8.20;2.63;;;;;;;20.20;43.68;102313.06;4996022;28;20022;-76
2022/01/29 02:38:11;;;;;;;8.43;1.75;;;;;;;20.18;43.74;102304.25;4995602;28;20027;-75
2022/01/29 02:40:45;;;;;;;;;;;;;;;19.68;44.82;102294.06;4996104;28;20030;-76
2022/01/29 02:43:18;;;;;;;8.27;1.92;;;;;;;19.57;45.14;102273.41;4995658;28;19914;-80
2022/01/29 02:45:44;;;;;;;10.85;3.25;;;;;;;20.05;44.03;102294.25;4995609;28;20049;-75
2022/01/29 02:48:11;;;;;;;7.50;2.20;;;;;;;20.17;43.86;102278.44;4993950;28;20404;-78
2022/01/29 02:50:37;;;;;;;8.02;2.83;;;;;;;20.33;43.41;102300.84;4995502;28;20076;-80
2022/01/29 02:53:03;;;;;;;8.07;2.17;;;;;;;19.81;44.68;102250.56;4995500;28;20015;-79
2022/01/29 02:55:29;;;;;;;7.13;1.83;;;;;;;19.71;45.06;102273.16;4994114;28;20023;-75
2022/01/29 02:57:56;;;;;;;9.25;2.35;;;;;;;20.15;43.90;102279.94;4995459;28;20036;-75
2022/01/29 03:00:22;;;;;;;12.70;2.90;;;;;;;20.07;44.00;102266.97;4995246;28;20025;-75
2022/01/29 03:02:47;;;;;;;9.93;2.10;;;;;;;19.97;44.28;102261.84;4995149;28;20033;-78
2022/01/29 03:05:13;;;;;;;8.68;2.95;;;;;;;19.78;45.08;102273.41;4995168;28;20022;-76
2022/01/29 03:07:39;;;;;;;10.05;2.25;;;;;;;19.81;44.90;102264.44;4995141;28;20118;-75
2022/01/29 03:10:06;;;;;;;11.13;3.13;;;;;;;20.26;43.97;102263.69;4995116;28;20400;-78
2022/01/29 03:12:32;;;;;;;17.30;2.97;;;;;;;20.09;44.36;102262.69;4995096;28;20084;-75
2022/01/29 03:14:58;;;;;;;8.85;1.92;;;;;;;20.03;44.54;102268.81;4994917;28;20499;-75
2022/01/29 03:17:24;;;;;;;15.10;2.65;;;;;;;20.15;44.36;102263.31;4994922;28;20022;-75
2022/01/29 03:19:52;;;;;;;9.90;1.83;;;;;;;20.09;44.34;102256.34;4994868;28;20057;-77
2022/01/29 03:22:18;;;;;;;9.60;2.70;;;;;;;20.41;43.92;102247.19;4994904;28;20472;-75
2022/01/29 03:24:44;;;;;;;10.95;3.17;;;;;;;19.89;44.87;102238.59;4993919;28;20018;-76
2022/01/29 03:27:10;;;;;;;8.77;2.17;;;;;;;20.24;44.04;102222.38;4994780;28;20026;-76
2022/01/29 03:29:36;;;;;;;14.05;2.97;;;;;;;19.89;44.39;102250.50;4994625;28;20030;-75
2022/01/29 03:32:02;;;;;;;8.18;2.72;;;;;;;20.13;44.01;102243.41;4994625;28;20110;-75
2022/01/29 03:34:27;;;;;;;10.02;2.65;;;;;;;20.14;44.11;102222.84;4994620;28;20026;-79
2022/01/29 03:36:55;;;;;;;9.93;2.05;;;;;;;19.96;44.64;102219.44;4994643;28;20109;-75
2022/01/29 03:39:23;;;;;;;8.98;2.90;;;;;;;20.02;44.51;102220.00;4994835;28;20385;-75
2022/01/29 03:41:49;;;;;;;7.05;2.40;;;;;;;19.74;45.16;102201.19;4992582;28;20050;-75
2022/01/29 03:44:14;;;;;;;9.65;2.70;;;;;;;19.41;46.25;102217.72;4991409;28;20499;-75
2022/01/29 03:46:40;;;;;;;10.73;2.45;;;;;;;19.64;45.51;102230.13;4994319;28;20106;-75
2022/01/29 03:49:06;;;;;;;5.75;2.63;;;;;;;19.72;45.35;102222.88;4994096;28;20093;-75
2022/01/29 03:51:31;;;;;;;13.52;3.30;;;;;;;20.19;44.27;102239.28;4994288;28;20030;-76
2022/01/29 03:53:57;;;;;;;8.18;2.08;;;;;;;20.29;43.88;102227.72;4994171;28;20033;-75
2022/01/29 03:56:22;;;;;;;8.60;2.03;;;;;;;19.83;44.96;102224.09;4994099;28;20034;-75
2022/01/29 03:58:48;;;;;;;14.50;3.38;;;;;;;19.59;45.55;102233.13;4994085;28;20034;-77
2022/01/29 04:01:14;;;;;;;11.45;2.75;;;;;;;19.95;44.86;102226.94;4994042;28;20026;-77
2022/01/29 04:03:40;;;;;;;16.50;3.53;;;;;;;19.95;44.59;102210.31;4994045;28;20038;-75
2022/01/29 04:06:06;;;;;;;6.55;2.08;;;;;;;20.07;44.24;102212.28;4993952;28;20034;-75
2022/01/29 04:08:39;;;;;;;13.45;3.42;;;;;;;19.52;45.87;102201.53;4993831;28;20023;-75
2022/01/29 04:11:04;;;;;;;10.13;3.15;;;;;;;19.93;44.85;102207.03;4993978;28;20029;-76
2022/01/29 04:13:30;;;;;;;8.27;3.00;;;;;;;20.38;43.51;102195.13;4993863;28;20022;-75
2022/01/29 04:15:55;;;;;;;9.85;2.22;;;;;;;19.90;44.95;102227.16;4992524;28;20034;-75
2022/01/29 04:18:21;;;;;;;9.52;2.88;;;;;;;19.76;45.36;102217.50;4993850;28;20030;-81
2022/01/29 04:20:47;;;;;;;10.43;3.42;;;;;;;20.04;44.34;102226.03;4993749;28;20030;-75
2022/01/29 04:23:12;;;;;;;10.35;2.30;;;;;;;19.83;44.99;102254.63;4993529;28;20030;-75
2022/01/29 04:25:38;;;;;;;9.40;3.15;;;;;;;20.06;44.56;102243.16;4993724;28;20080;-76
2022/01/29 04:28:05;;;;;;;12.30;2.97;;;;;;;19.77;45.43;102227.44;4993581;28;20504;-75
2022/01/29 04:30:40;;;;;;;11.32;2.55;;;;;;;20.30;44.08;102239.66;4992264;28;20030;-76
2022/01/29 04:35:43;;;;;;;9.90;2.67;;;;;;;19.89;44.96;102233.03;4993458;28;20022;-75
2022/01/29 04:38:09;;;;;;;14.73;2.85;;;;;;;20.37;43.87;102235.16;4993396;28;20385;-78
2022/01/29 04:40:35;;;;;;;11.18;3.15;;;;;;;20.28;44.08;102212.25;4992299;28;20034;-79
2022/01/29 04:43:02;;;;;;;11.02;2.20;;;;;;;20.54;43.32;102208.38;4993421;28;20027;-75
2022/01/29 04:45:28;;;;;;;9.65;2.75;;;;;;;20.42;43.40;102196.06;4993393;28;20046;-75
2022/01/29 04:47:54;;;;;;;14.75;3.17;;;;;;;20.32;43.75;102193.72;4992978;28;20184;-75
2022/01/29 04:50:19;;;;;;;12.05;3.00;;;;;;;20.38;43.58;102197.09;4993285;28;20038;-76
2022/01/29 04:52:45;;;;;;;9.48;2.28;;;;;;;20.57;43.13;102191.03;4993282;28;20057;-80
2022/01/29 04:55:11;;;;;;;14.85;4.32;;;;;;;20.36;43.55;102197.44;4993307;28;20049;-75
2022/01/29 04:57:39;;;;;;;15.35;3.53;;;;;;;20.31;43.68;102175.44;4993114;28;20038;-75
2022/01/29 05:00:09;;;;;;;12.88;2.75;;;;;;;20.22;43.96;102170.00;4993193;28;20049;-75
2022/01/29 05:02:35;;;;;;;10.80;2.40;;;;;;;20.23;43.76;102138.31;4993170;28;20480;-75
2022/01/29 05:05:01;;;;;;;15.38;3.47;;;;;;;20.44;43.24;102141.03;4991840;28;20034;-79
2022/01/29 05:07:27;;;;;;;9.63;2.60;;;;;;;20.30;43.82;102142.50;4991855;28;20032;-77
2022/01/29 05:09:52;;;;;;;16.73;3.03;;;;;;;20.36;43.45;102130.00;4992903;28;20121;-75
2022/01/29 05:12:24;;;;;;;8.70;2.92;;;;;;;20.13;44.23;102143.53;4993112;28;20026;-75
2022/01/29 05:15:15;;;;;;;8.65;2.72;;;;;;;20.57;43.00;102158.53;4993056;28;20435;-75
2022/01/29 05:28:34;;;;;;;10.52;2.30;;;;;;;20.20;44.20;102132.66;4993104;28;20034;-76
2022/01/29 05:31:00;;;;;;;13.43;4.38;;;;;;;20.44;43.41;102141.03;4992833;28;20031;-75
2022/01/29 05:33:25;;;;;;;8.80;2.95;;;;;;;20.39;43.51;102126.53;4992895;28;20108;-75
2022/01/29 05:35:51;;;;;;;10.13;2.63;;;;;;;20.52;43.18;102132.94;4992825;28;20030;-75
2022/01/29 05:38:17;;;;;;;13.85;3.72;;;;;;;20.50;43.22;102120.22;4992779;28;20534;-79
2022/01/29 05:40:42;;;;;;;11.88;3.42;;;;;;;20.62;43.02;102129.69;4992726;28;20035;-79
2022/01/29 05:43:08;;;;;;;13.80;3.85;;;;;;;19.74;45.04;102112.47;4992827;28;20026;-75
2022/01/29 05:45:33;;;;;;;11.85;3.42;;;;;;;20.02;43.83;102126.50;4992704;28;20528;-77
2022/01/29 05:47:59;;;;;;;15.50;3.75;;;;;;;20.01;44.42;102135.97;4995306;28;20429;-79
2022/01/29 05:50:26;;;;;;;17.40;3.35;;;;;;;19.79;44.89;102134.41;4998885;28;20089;-74
2022/01/29 05:52:52;;;;;;;14.25;3.13;;;;;;;20.33;43.48;102109.31;4997576;28;20043;-75
2022/01/29 05:55:17;;;;;;;14.95;3.53;;;;;;;19.95;43.88;102106.84;4996989;28;20023;-75
2022/01/29 05:57:43;;;;;;;14.50;3.22;;;;;;;20.41;42.89;102133.38;4996807;28;20034;-76
2022/01/29 06:00:09;;;;;;;18.40;4.22;;;;;;;20.60;42.52;102120.91;4996484;28;20022;-75
2022/01/29 06:02:35;;;;;;;13.23;3.50;;;;;;;20.57;42.65;102127.97;4996421;28;20428;-75
2022/01/29 06:05:00;;;;;;;13.65;3.67;;;;;;;20.80;41.97;102136.63;4996305;28;20032;-78
2022/01/29 06:07:26;;;;;;;16.98;3.60;;;;;;;20.73;42.36;102134.44;4996199;28;20062;-75
2022/01/29 06:09:52;;;;;;;15.48;3.58;;;;;;;20.64;42.70;102125.44;4996059;28;20117;-75
2022/01/29 06:12:17;;;;;;;15.93;3.25;;;;;;;20.51;42.84;102118.25;4994889;28;20035;-75
2022/01/29 06:14:43;;;;;;;14.68;3.95;;;;;;;20.44;42.84;102110.50;4996013;28;20109;-75
2022/01/29 06:17:11;;;;;;;13.95;3.83;;;;;;;20.73;42.24;102111.41;4996322;28;20022;-75
2022/01/29 06:19:36;;;;;;;14.38;3.40;;;;;;;20.18;43.05;102080.28;4995956;28;20521;-78
2022/01/29 06:22:08;;;;;;;15.35;4.95;;;;;;;20.65;42.36;102090.13;4995873;28;20162;-74
2022/01/29 06:24:33;;;;;;;15.40;3.75;;;;;;;20.44;42.53;102093.84;4996012;28;20401;-74
2022/01/29 06:26:59;;;;;;;22.13;5.18;;;;;;;20.31;42.78;102083.84;4995889;28;20034;-75
2022/01/29 06:29:24;;;;;;;16.70;4.20;;;;;;;20.72;41.99;102074.50;4995798;28;20030;-74
2022/01/29 06:31:50;;;;;;;11.02;3.83;;;;;;;20.12;43.17;102059.47;4995897;28;20053;-74
2022/01/29 06:34:16;;;;;;;21.45;4.60;;;;;;;20.55;42.28;102065.59;4995570;28;20149;-76
2022/01/29 06:36:41;;;;;;;17.58;4.43;;;;;;;20.73;41.79;102069.75;4994483;28;20046;-80
2022/01/29 06:39:07;;;;;;;17.65;4.43;;;;;;;20.66;42.07;102067.56;4995682;28;20037;-74
2022/01/29 06:41:32;;;;;;;8.82;2.67;;;;;;;20.36;42.58;102077.28;4995660;28;20022;-75
2022/01/29 06:43:58;;;;;;;17.38;4.07;;;;;;;20.18;43.00;102068.38;4995598;28;20084;-79
2022/01/29 06:46:24;;;;;;;15.30;4.25;;;;;;;20.34;42.76;102044.31;4995433;28;20400;-77
2022/01/29 06:48:49;;;;;;;18.73;4.13;;;;;;;20.42;42.35;102056.47;4995191;28;20083;-75
2022/01/29 06:51:18;;;;;;;15.35;3.88;;;;;;;20.63;41.91;102034.09;4995642;28;20047;-75
2022/01/29 06:53:44;;;;;;;12.48;3.50;;;;;;;20.76;41.46;102061.50;4995326;28;20081;-76
2022/01/29 06:56:10;;;;;;;7.63;2.70;;;;;;;20.60;42.17;102043.97;4995311;28;20034;-77
2022/01/29 06:58:36;;;;;;;10.50;3.10;;;;;;;20.14;43.36;102050.78;4993980;28;20042;-77
2022/01/29 07:01:02;;;;;;;14.75;3.58;;;;;;;20.18;43.61;102049.75;4993956;28;20539;-82
2022/01/29 07:03:28;;;;;;;9.73;2.78;;;;;;;20.30;43.38;102071.13;4995266;28;20030;-75
2022/01/29 07:05:53;;;;;;;13.18;3.35;;;;;;;20.21;43.92;102065.72;4995128;28;20041;-75
2022/01/29 07:08:19;;;;;;;12.20;2.90;;;;;;;20.33;44.03;102064.91;4995002;28;20041;-78
2022/01/29 07:10:45;;;;;;;18.02;5.18;;;;;;;20.02;44.82;102059.09;4993850;28;20030;-77
2022/01/29 07:13:11;;;;;;;19.27;4.03;;;;;;;20.22;44.45;102061.78;4994984;28;20030;-75
2022/01/29 07:15:38;;;;;;;11.02;2.28;;;;;;;19.53;46.17;102039.56;4995064;28;20031;-79
2022/01/29 07:18:03;;;;;;;11.07;2.92;;;;;;;19.91;45.55;102058.75;4995001;28;20056;-75
2022/01/29 07:20:29;;;;;;;11.07;2.30;;;;;;;20.27;44.56;102030.22;4993691;28;20034;-75
2022/01/29 07:22:54;;;;;;;10.77;2.90;;;;;;;19.98;45.61;102066.50;4994900;28;20073;-75
2022/01/29 07:25:20;;;;;;;10.48;3.00;;;;;;;20.39;44.55;102063.50;4994823;28;20492;-75
2022/01/29 07:27:46;;;;;;;11.07;3.20;;;;;;;20.65;44.08;102063.16;4994671;28;20499;-76
2022/01/29 07:30:12;;;;;;;16.05;4.18;;;;;;;20.27;44.93;102057.16;4994683;28;20488;-75
2022/01/29 07:32:45;;;;;;;12.98;3.20;;;;;;;20.78;44.11;102058.38;4994545;28;20038;-80
2022/01/29 07:35:11;;;;;;;9.65;2.22;;;;;;;20.57;44.54;102052.19;4994648;28;20495;-75
2022/01/29 07:37:37;;;;;;;11.07;2.55;;;;;;;20.18;45.63;102062.84;4994677;28;20129;-77
2022/01/29 07:40:03;;;;;;;11.88;2.70;;;;;;;20.57;44.77;102071.63;4994542;28;20038;-74
2022/01/29 07:42:28;;;;;;;8.20;2.58;;;;;;;20.56;44.74;102061.69;4994540;28;20470;-75
2022/01/29 07:44:54;;;;;;;11.55;3.05;;;;;;;20.65;44.60;102073.47;4994362;28;20110;-78
2022/01/29 07:47:20;;;;;;;8.20;2.08;;;;;;;20.16;45.83;102062.34;4994223;28;20129;-74
2022/01/29 07:49:45;;;;;;;11.63;2.70;;;;;;;20.24;45.90;102062.22;4994290;28;20073;-75
2022/01/29 07:52:11;;;;;;;6.75;1.92;;;;;;;20.56;45.12;102078.34;4992898;28;20393;-75
2022/01/29 07:54:36;;;;;;;12.35;3.28;;;;;;;20.52;45.30;102088.53;4994236;28;20038;-76
2022/01/29 07:57:02;;;;;;;8.85;2.13;;;;;;;20.60;45.03;102079.25;4994223;28;20085;-78
2022/01/29 07:59:28;;;;;;;6.85;1.95;;;;;;;20.10;46.58;102110.91;4992880;28;20041;-75
2022/01/29 08:01:53;;;;;;;6.22;1.45;;;;;;;19.94;47.01;102092.16;4994129;28;20037;-75
2022/01/29 08:04:23;;;;;;;8.55;2.65;;;;;;;20.69;45.09;102100.19;4994108;28;20030;-76
2022/01/29 08:06:48;;;;;;;5.32;1.50;;;;;;;20.56;45.59;102112.47;4994065;28;20019;-76
2022/01/29 08:09:14;;;;;;;4.75;2.22;;;;;;;20.12;46.63;102098.31;4993557;28;20030;-79
2022/01/29 08:11:40;;;;;;;4.80;2.20;;;;;;;20.34;46.26;102094.28;4993923;28;20030;-76
2022/01/29 08:14:06;;;;;;;7.75;1.63;;;;;;;19.88;47.34;102096.31;4993867;28;20031;-77
2022/01/29 08:16:31;;;;;;;7.43;1.58;;;;;;;20.54;45.92;102091.75;4993911;28;20026;-78
2022/01/29 08:18:57;;;;;;;12.02;3.33;;;;;;;20.20;46.86;102088.25;4993862;28;20080;-75
2022/01/29 08:21:23;;;;;;;5.82;1.83;;;;;;;20.70;45.95;102095.44;4993806;28;20697;-76
2022/01/29 08:23:49;;;;;;;9.25;2.50;;;;;;;20.37;46.71;102095.53;4993707;28;20040;-84
2022/01/29 08:26:14;;;;;;;4.80;1.10;;;;;;;20.14;47.34;102129.28;4992642;28;20022;-83
2022/01/29 08:28:40;;;;;;;7.45;1.75;;;;;;;20.17;47.32;102131.38;4993389;28;20037;-76
2022/01/29 08:31:06;;;;;;;3.60;1.20;;;;;;;20.24;47.46;102137.16;4992319;28;20054;-74
2022/01/29 08:33:32;;;;;;;6.43;1.38;;;;;;;20.29;47.27;102143.66;4993636;28;20153;-75
2022/01/29 08:35:58;;;;;;;7.80;1.90;;;;;;;20.61;46.46;102164.97;4989394;28;20058;-80
2022/01/29 08:38:25;;;;;;;5.70;1.83;;;;;;;20.33;47.32;102167.63;4992639;28;20062;-75
2022/01/29 08:40:51;;;;;;;7.10;1.80;;;;;;;20.55;46.75;102176.66;4984837;28;20722;-75
2022/01/29 08:43:16;;;;;;;5.97;1.85;;;;;;;20.43;47.03;102189.38;4958061;28;20142;-75
2022/01/29 08:45:42;;;;;;;4.85;1.38;;;;;;;20.05;48.15;102202.69;4977174;28;20142;-75
2022/01/29 08:48:08;;;;;;;7.82;1.50;;;;;;;20.48;47.02;102207.81;4978269;28;20057;-75
2022/01/29 08:50:34;;;;;;;6.80;1.33;;;;;;;20.27;47.40;102205.06;4975640;28;20030;-77
2022/01/29 08:52:59;;;;;;;6.32;1.55;;;;;;;20.39;47.03;102227.28;4976983;28;20026;-81
2022/01/29 08:55:25;;;;;;;4.57;1.38;;;;;;;20.59;46.77;102233.13;4977134;28;20113;-77
2022/01/29 08:57:50;;;;;;;8.20;2.40;;;;;;;20.91;45.54;102221.13;4976114;28;20030;-76
2022/01/29 09:00:17;;;;;;;4.05;1.35;;;;;;;20.29;47.18;102236.06;4975892;28;20114;-75
2022/01/29 09:02:43;;;;;;;1.75;0.85;;;;;;;20.44;46.72;102218.78;4976958;28;20022;-78
2022/01/29 09:05:10;;;;;;;5.57;1.30;;;;;;;20.42;46.75;102228.56;4966064;28;20477;-74
2022/01/29 09:07:36;;;;;;;5.28;1.63;;;;;;;20.08;47.34;102225.00;4977347;28;20550;-76
2022/01/29 09:10:02;;;;;;;4.40;1.85;;;;;;;20.76;45.21;102261.50;4972393;28;20117;-79
2022/01/29 09:12:29;;;;;;;12.93;3.20;;;;;;;20.77;44.43;102253.97;4959714;28;20058;-77
2022/01/29 09:14:55;;;;;;;18.20;4.95;;;;;;;19.86;42.54;102262.25;4960986;28;20031;-76
2022/01/29 09:17:20;;;;;;;22.77;7.10;;;;;;;19.77;40.43;102280.13;4975418;28;20045;-79
2022/01/29 09:19:46;;;;;;;15.93;5.25;;;;;;;19.93;39.05;102292.22;4977460;28;20124;-78
2022/01/29 09:22:13;;;;;;;19.27;5.85;;;;;;;19.40;37.98;102282.63;4977472;28;20035;-79
2022/01/29 09:24:39;;;;;;;19.95;6.03;;;;;;;18.96;37.12;102304.19;4981978;28;20169;-76
2022/01/29 09:27:05;;;;;;;21.60;5.93;;;;;;;19.20;36.07;102334.09;4975172;28;20536;-76
2022/01/29 09:29:30;;;;;;;21.70;5.32;;;;;;;18.57;36.90;102346.81;4981224;28;20456;-77
2022/01/29 09:31:56;;;;;;;26.77;8.15;;;;;;;19.08;36.38;102347.84;4968014;28;20117;-77
2022/01/29 09:34:21;;;;;;;24.67;6.65;;;;;;;19.00;36.66;102368.88;4964702;28;20023;-76
2022/01/29 09:36:47;;;;;;;27.38;6.63;;;;;;;19.24;36.41;102375.81;4967157;28;20113;-76
2022/01/29 09:39:12;;;;;;;27.42;7.07;;;;;;;19.20;36.58;102386.75;4964880;28;20077;-76
2022/01/29 09:41:43;;;;;;;21.52;5.53;;;;;;;18.91;36.93;102376.41;4969320;28;20042;-76
2022/01/29 09:44:09;;;;;;;26.80;6.80;;;;;;;19.13;36.83;102386.44;4962971;28;20129;-75
2022/01/29 09:46:35;;;;;;;29.90;7.50;;;;;;;19.08;36.64;102397.69;4963431;28;20038;-76
2022/01/29 09:49:01;;;;;;;27.33;6.75;;;;;;;19.10;36.58;102401.75;4964769;28;20059;-75
2022/01/29 09:51:27;;;;;;;32.17;7.93;;;;;;;19.12;36.11;102401.44;4962981;28;20034;-80
2022/01/29 09:53:53;;;;;;;28.92;7.05;;;;;;;19.24;35.19;102403.50;4972780;28;20393;-75
2022/01/29 09:56:19;;;;;;;30.52;7.10;;;;;;;19.43;35.29;102408.66;5005181;28;20034;-79
2022/01/29 09:58:44;;;;;;;28.63;6.22;;;;;;;19.25;35.32;102427.31;4967182;28;20035;-76
2022/01/29 10:01:10;;;;;;;27.58;6.97;;;;;;;19.40;35.09;102432.31;4964767;28;20061;-76
2022/01/29 10:03:36;;;;;;;22.98;6.63;;;;;;;19.60;34.77;102439.91;4963546;28;20477;-76
2022/01/29 10:06:03;;;;;;;27.83;6.65;;;;;;;19.76;34.80;102451.25;4964765;28;20023;-75
2022/01/29 10:08:40;;;;;;;25.75;6.88;;;;;;;19.66;34.99;102474.66;4978359;28;20493;-76
2022/01/29 10:11:19;;;;;;;24.20;7.32;;;;;;;19.67;35.07;102469.91;4979962;28;20443;-77
2022/01/29 10:13:45;;;;;;;26.58;7.03;;;;;;;19.49;35.38;102479.38;4999496;28;20292;-80
2022/01/29 10:16:19;;;;;;;24.30;7.18;;;;;;;19.56;35.04;102485.25;4995949;28;20030;-76
2022/01/29 10:19:06;;;;;;;30.10;8.43;;;;;;;19.70;35.20;102483.09;4996027;28;20098;-81
2022/01/29 10:21:35;;;;;;;36.22;8.13;;;;;;;19.39;35.95;102498.03;4984591;28;20544;-77
2022/01/29 10:24:05;;;;;;;26.40;7.82;;;;;;;19.34;36.03;102492.63;4981592;28;20112;-76
2022/01/29 10:26:39;;;;;;;26.35;7.05;;;;;;;19.64;35.80;102501.88;4982314;28;20025;-76
2022/01/29 10:29:07;;;;;;;30.80;7.07;;;;;;;19.51;35.57;102527.03;4982425;28;20045;-78
2022/01/29 10:31:47;;;;;;;27.75;7.53;;;;;;;19.55;35.30;102514.13;4973696;28;20031;-77
2022/01/29 10:34:18;;;;;;;26.00;8.55;;;;;;;19.23;35.65;102510.78;4978641;28;20054;-76
2022/01/29 10:36:45;;;;;;;37.20;9.48;;;;;;;19.44;35.59;102532.25;4969211;28;20085;-78
2022/01/29 10:39:11;;;;;;;29.92;7.10;;;;;;;19.73;35.16;102534.31;4976588;28;20664;-76
2022/01/29 10:41:37;;;;;;;28.27;6.72;;;;;;;19.61;35.34;102541.38;4979774;28;20029;-79
2022/01/29 10:46:49;;;;;;;25.60;7.72;;;;;;;19.61;35.39;102541.38;4973465;28;20041;-76
2022/01/29 10:49:29;;;;;;;26.30;7.03;;;;;;;18.95;36.56;102534.44;4967034;28;20049;-75
2022/01/29 10:52:01;;;;;;;40.90;8.88;;;;;;;19.13;36.04;102552.69;4978764;28;20065;-75
2022/01/29 10:54:28;;;;;;;37.13;7.95;;;;;;;19.52;35.10;102561.91;4979353;28;20026;-75
2022/01/29 10:56:59;;;;;;;35.22;10.40;;;;;;;19.36;35.72;102565.22;4978295;28;20038;-77
2022/01/29 10:59:28;;;;;;;35.50;7.72;;;;;;;19.28;35.73;102563.28;4979823;28;20693;-75
2022/01/29 11:01:59;;;;;;;31.85;8.25;;;;;;;19.50;35.26;102581.66;4979053;28;20034;-79
2022/01/29 11:04:28;;;;;;;31.63;7.45;;;;;;;19.66;35.21;102584.75;4978777;28;21352;-76
2022/01/29 11:06:57;;;;;;;33.53;8.30;;;;;;;19.51;35.50;102577.75;4977314;28;20026;-76
2022/01/29 11:09:23;;;;;;;28.75;8.52;;;;;;;19.15;36.16;102580.88;4978469;28;20034;-75
2022/01/29 11:11:51;;;;;;;35.92;9.10;;;;;;;19.23;35.64;102580.06;4973522;28;20854;-81
2022/01/29 11:14:19;;;;;;;25.70;7.38;;;;;;;18.98;36.02;102573.41;4970857;28;20023;-79
2022/01/29 11:16:46;;;;;;;30.20;8.10;;;;;;;19.01;36.21;102586.59;4973119;28;20031;-80
2022/01/29 11:19:13;;;;;;;40.28;8.45;;;;;;;19.07;35.92;102596.38;4973831;28;20030;-80
2022/01/29 11:21:41;;;;;;;25.25;6.35;;;;;;;19.05;36.07;102595.06;4980496;28;20030;-81
2022/01/29 11:24:09;;;;;;;35.70;8.60;;;;;;;19.83;35.10;102600.53;4995121;28;20409;-83
2022/01/29 11:26:36;;;;;;;38.53;9.23;;;;;;;20.00;34.58;102607.97;4994853;28;20373;-78
2022/01/29 11:29:23;;;;;;;23.17;7.28;;;;;;;19.69;34.88;102600.72;4994703;28;20033;-80
2022/01/29 11:32:20;;;;;;;31.35;9.30;;;;;;;19.94;34.34;102599.00;4993599;28;20037;-77
2022/01/29 11:35:09;;;;;;;34.75;9.57;;;;;;;20.09;34.21;102611.50;4994680;28;20022;-78
2022/01/29 11:37:46;;;;;;;33.50;7.28;;;;;;;19.82;34.68;102610.00;4985439;28;20739;-78